Time;durP1;ratioP1;P1;durP2;ratioP2;P2;SDS_P1;SDS_P2;PMS_P1;PMS_P2;Temp;Humidity;BMP_temperature;BMP_pressure;BME280_temperature;BME280_humidity;BME280_pressure;Samples;Min_cycle;Max_cycle;Signal;HPM_P1;HPM_P2
2021/08/09 00:00:41;;;;;;;4.07;1.25;;;14.60;99.90;;;;;;5064486;28;20028;-72
2021/08/09 00:03:07;;;;;;;1.65;1.00;;;14.70;99.90;;;;;;5066982;28;20497;-71
2021/08/09 00:05:36;;;;;;;7.13;2.25;;;14.70;99.90;;;;;;5067951;28;20060;-72
2021/08/09 00:08:03;;;;;;;9.43;1.83;;;14.70;99.90;;;;;;5066692;28;20126;-71
2021/08/09 00:10:30;;;;;;;4.25;1.60;;;14.70;99.90;;;;;;5067842;28;20056;-72
2021/08/09 00:12:56;;;;;;;3.78;1.73;;;14.70;99.90;;;;;;5067636;28;20041;-73
2021/08/09 00:15:23;;;;;;;3.33;1.50;;;14.70;99.90;;;;;;5067715;28;20088;-70
2021/08/09 00:17:48;;;;;;;2.08;1.00;;;14.80;99.90;;;;;;5051740;28;20091;-72
2021/08/09 00:20:15;;;;;;;2.42;1.58;;;14.70;99.90;;;;;;5047884;28;20033;-73
2021/08/09 00:22:42;;;;;;;1.60;1.33;;;14.70;99.90;;;;;;5046442;28;20136;-75
2021/08/09 00:25:08;;;;;;;4.25;1.45;;;14.70;99.90;;;;;;5046466;28;20030;-75
2021/08/09 00:27:34;;;;;;;7.40;2.03;;;14.60;99.90;;;;;;5047766;28;20021;-74
2021/08/09 00:30:00;;;;;;;3.35;1.52;;;14.60;99.90;;;;;;5047619;28;20044;-71
2021/08/09 00:32:26;;;;;;;2.55;1.10;;;14.60;99.90;;;;;;5047499;28;20064;-72
2021/08/09 00:34:51;;;;;;;2.13;1.30;;;14.60;99.90;;;;;;5047514;28;20029;-74
2021/08/09 00:37:17;;;;;;;3.00;1.13;;;14.50;99.90;;;;;;5046226;28;20030;-73
2021/08/09 00:39:43;;;;;;;2.67;1.30;;;14.60;99.90;;;;;;5047544;28;20052;-76
2021/08/09 00:42:09;;;;;;;2.70;1.30;;;14.60;99.90;;;;;;5045827;28;20033;-71
2021/08/09 00:44:35;;;;;;;9.27;1.63;;;14.70;99.90;;;;;;5047340;28;20032;-74
2021/08/09 00:47:01;;;;;;;5.97;1.92;;;14.60;99.90;;;;;;5047227;28;20032;-71
2021/08/09 00:49:27;;;;;;;3.30;1.15;;;14.60;99.90;;;;;;5047142;28;20085;-70
2021/08/09 00:51:55;;;;;;;2.70;1.33;;;14.70;99.90;;;;;;5046957;28;20049;-70
2021/08/09 00:54:22;;;;;;;2.15;1.38;;;14.70;99.90;;;;;;5047071;28;20429;-71
2021/08/09 00:56:49;;;;;;;2.33;1.10;;;14.70;99.90;;;;;;5045878;28;20061;-73
2021/08/09 00:59:16;;;;;;;5.78;1.42;;;14.70;99.90;;;;;;5045772;28;20036;-74
2021/08/09 01:01:41;;;;;;;2.97;1.20;;;14.70;99.90;;;;;;5046906;28;20072;-72
2021/08/09 01:04:09;;;;;;;5.43;1.17;;;14.70;99.90;;;;;;5046941;28;20677;-73
2021/08/09 01:06:35;;;;;;;4.88;1.70;;;14.80;99.90;;;;;;5046988;28;20025;-75
2021/08/09 01:09:09;;;;;;;9.32;1.75;;;14.70;99.90;;;;;;5046891;28;20029;-70
2021/08/09 01:12:07;;;;;;;2.92;1.17;;;14.70;99.90;;;;;;5045519;28;20048;-72
2021/08/09 01:15:03;;;;;;;3.83;1.73;;;14.70;99.90;;;;;;5046208;28;20064;-73
2021/08/09 01:17:33;;;;;;;4.20;1.38;;;14.70;99.90;;;;;;5056868;28;20076;-73
2021/08/09 01:20:20;;;;;;;3.25;1.52;;;14.70;99.90;;;;;;5066618;28;20039;-72
2021/08/09 01:22:54;;;;;;;4.05;1.50;;;14.70;99.90;;;;;;5066625;28;20040;-70
2021/08/09 01:25:29;;;;;;;3.22;1.35;;;14.70;99.90;;;;;;5066395;28;20033;-72
2021/08/09 01:27:56;;;;;;;3.35;1.35;;;14.50;99.90;;;;;;5066547;28;20033;-71
2021/08/09 01:30:22;;;;;;;3.42;1.67;;;14.60;99.90;;;;;;5066202;28;20055;-70
2021/08/09 01:32:49;;;;;;;2.10;1.10;;;14.50;99.90;;;;;;5066258;28;20096;-71
2021/08/09 01:35:16;;;;;;;4.20;1.33;;;14.60;99.90;;;;;;5065060;28;20107;-73
2021/08/09 01:37:46;;;;;;;15.60;3.17;;;14.60;99.90;;;;;;5065139;28;20028;-72
2021/08/09 01:40:14;;;;;;;6.65;1.35;;;14.50;99.90;;;;;;5066385;28;20025;-72
2021/08/09 01:42:44;;;;;;;6.03;1.38;;;14.50;99.90;;;;;;5066404;28;20064;-72
2021/08/09 01:45:12;;;;;;;2.45;1.38;;;14.50;99.90;;;;;;5066308;28;20096;-73
2021/08/09 01:47:38;;;;;;;3.80;1.45;;;14.60;99.90;;;;;;5066201;28;20029;-71
2021/08/09 01:50:06;;;;;;;3.15;1.30;;;14.50;99.90;;;;;;5066056;28;20940;-70
2021/08/09 01:52:33;;;;;;;3.63;1.67;;;14.40;99.90;;;;;;5065656;28;20045;-72
2021/08/09 01:54:59;;;;;;;4.15;1.30;;;14.40;99.90;;;;;;5064561;28;20555;-68
2021/08/09 01:57:26;;;;;;;3.97;1.42;;;14.40;99.90;;;;;;5065834;28;20024;-71
2021/08/09 01:59:53;;;;;;;2.42;1.55;;;14.40;99.90;;;;;;5065842;28;20032;-73
2021/08/09 02:02:29;;;;;;;8.10;1.65;;;14.40;99.90;;;;;;5064351;28;20033;-72
2021/08/09 02:04:55;;;;;;;3.45;1.48;;;14.30;99.90;;;;;;5065892;28;20025;-70
2021/08/09 02:07:20;;;;;;;3.40;1.52;;;14.30;99.90;;;;;;5065697;28;20028;-70
2021/08/09 02:09:47;;;;;;;1.92;1.40;;;14.30;99.90;;;;;;5065777;28;20029;-71
2021/08/09 02:12:14;;;;;;;3.20;1.70;;;14.30;99.90;;;;;;5065696;28;20048;-69
2021/08/09 02:14:54;;;;;;;5.43;1.95;;;14.40;99.90;;;;;;5065782;28;20524;-73
2021/08/09 02:17:28;;;;;;;4.60;1.75;;;14.30;99.90;;;;;;5065215;28;20416;-70
2021/08/09 02:20:10;;;;;;;6.57;2.60;;;14.40;99.90;;;;;;5065587;28;20033;-74
2021/08/09 02:22:51;;;;;;;7.05;1.83;;;14.30;99.90;;;;;;5063921;28;20082;-71
2021/08/09 02:25:22;;;;;;;4.53;2.65;;;14.30;99.90;;;;;;5064612;28;20108;-72
2021/08/09 02:27:54;;;;;;;11.65;1.52;;;14.30;99.90;;;;;;5065617;28;20057;-72
2021/08/09 02:30:22;;;;;;;3.95;1.67;;;14.20;99.90;;;;;;5065345;28;20025;-72
2021/08/09 02:32:51;;;;;;;6.57;1.67;;;14.20;99.90;;;;;;5065263;28;20029;-71
2021/08/09 02:35:20;;;;;;;2.95;1.85;;;14.20;99.90;;;;;;5063875;28;20033;-72
2021/08/09 02:37:47;;;;;;;2.92;1.70;;;14.20;99.90;;;;;;5065203;28;20033;-72
2021/08/09 02:40:14;;;;;;;3.58;1.85;;;14.20;99.90;;;;;;5065046;28;20060;-71
2021/08/09 02:42:40;;;;;;;11.52;1.92;;;14.20;99.90;;;;;;5064676;28;20032;-70
2021/08/09 02:45:06;;;;;;;18.45;1.90;;;14.20;99.90;;;;;;5063733;28;20021;-71
2021/08/09 02:47:37;;;;;;;4.72;1.73;;;14.20;99.90;;;;;;5063275;28;20040;-73
2021/08/09 02:50:04;;;;;;;4.45;2.20;;;14.30;99.90;;;;;;5064974;28;20021;-73
2021/08/09 02:52:32;;;;;;;8.45;2.58;;;14.30;99.90;;;;;;5064674;28;20077;-70
2021/08/09 02:54:59;;;;;;;6.50;2.60;;;14.30;99.90;;;;;;5064966;28;20081;-71
2021/08/09 02:57:28;;;;;;;5.35;2.65;;;14.30;99.90;;;;;;5063409;28;20025;-72
2021/08/09 02:59:54;;;;;;;5.03;2.08;;;14.30;99.90;;;;;;5064907;28;20017;-70
2021/08/09 03:02:22;;;;;;;2.67;1.92;;;14.30;99.90;;;;;;5064661;28;20029;-72
2021/08/09 03:04:50;;;;;;;14.75;2.60;;;14.30;99.90;;;;;;5063666;28;20029;-71
2021/08/09 03:07:17;;;;;;;8.35;3.30;;;14.30;99.90;;;;;;5065185;28;20025;-73
2021/08/09 03:09:44;;;;;;;3.88;1.98;;;14.40;99.90;;;;;;5063499;28;20021;-72
2021/08/09 03:12:17;;;;;;;9.10;2.55;;;14.40;99.90;;;;;;5064713;28;20036;-70
2021/08/09 03:14:49;;;;;;;11.03;2.33;;;14.40;99.90;;;;;;5064804;28;20021;-74
2021/08/09 03:17:15;;;;;;;11.52;2.58;;;14.30;99.90;;;;;;5064420;28;20096;-73
2021/08/09 03:19:40;;;;;;;3.10;1.58;;;14.30;99.90;;;;;;5063525;28;20481;-70
2021/08/09 03:22:06;;;;;;;3.53;1.98;;;14.30;99.90;;;;;;5064452;28;20036;-72
2021/08/09 03:24:32;;;;;;;2.83;1.80;;;14.40;99.90;;;;;;5064629;28;20112;-72
2021/08/09 03:27:00;;;;;;;11.00;1.92;;;14.30;99.90;;;;;;5063056;28;20025;-74
2021/08/09 03:29:26;;;;;;;2.97;1.73;;;14.30;99.90;;;;;;5064572;28;20080;-70
2021/08/09 03:31:52;;;;;;;6.22;2.50;;;14.10;99.90;;;;;;5064330;28;20040;-73
2021/08/09 03:34:18;;;;;;;4.85;1.75;;;14.20;99.90;;;;;;5063201;28;20075;-74
2021/08/09 03:36:47;;;;;;;9.05;1.75;;;14.30;99.90;;;;;;5065563;28;20033;-71
2021/08/09 03:39:16;;;;;;;6.47;2.20;;;14.10;99.90;;;;;;5068654;28;20061;-72
2021/08/09 03:41:43;;;;;;;9.15;2.03;;;14.20;99.90;;;;;;5068620;28;20031;-70
2021/08/09 03:44:09;;;;;;;2.80;1.67;;;14.10;99.90;;;;;;5068411;28;20029;-72
2021/08/09 03:46:35;;;;;;;5.38;2.08;;;14.10;99.90;;;;;;5068517;28;20090;-73
2021/08/09 03:49:07;;;;;;;8.48;1.80;;;14.10;99.90;;;;;;5068482;28;20462;-70
2021/08/09 03:51:34;;;;;;;8.43;2.63;;;14.10;99.90;;;;;;5068158;28;20025;-73
2021/08/09 03:54:00;;;;;;;4.93;2.33;;;14.10;99.90;;;;;;5066874;28;20451;-76
2021/08/09 03:56:26;;;;;;;7.95;2.38;;;14.00;99.90;;;;;;5068411;28;20036;-71
2021/08/09 03:58:51;;;;;;;4.38;2.17;;;14.10;99.90;;;;;;5068180;28;20037;-72
2021/08/09 04:01:18;;;;;;;5.50;2.40;;;14.10;99.90;;;;;;5068230;28;20029;-71
2021/08/09 04:03:44;;;;;;;2.90;1.50;;;14.00;99.90;;;;;;5068093;28;20180;-74
2021/08/09 04:06:10;;;;;;;7.20;2.47;;;14.10;99.90;;;;;;5068249;28;20060;-70
2021/08/09 04:08:39;;;;;;;4.45;2.03;;;14.00;99.90;;;;;;5066482;28;20029;-72
2021/08/09 04:11:05;;;;;;;3.10;2.03;;;14.00;99.90;;;;;;5068025;28;20856;-72
2021/08/09 04:13:31;;;;;;;4.57;2.10;;;14.00;99.90;;;;;;5067926;28;20037;-70
2021/08/09 04:15:56;;;;;;;16.10;2.33;;;14.00;99.90;;;;;;5067488;28;20047;-71
2021/08/09 04:18:22;;;;;;;5.28;1.92;;;14.00;99.90;;;;;;5067921;28;20029;-72
2021/08/09 04:20:49;;;;;;;9.15;2.47;;;14.00;99.90;;;;;;5066528;28;20075;-74
2021/08/09 04:23:15;;;;;;;6.80;2.60;;;14.00;99.90;;;;;;5067852;28;20029;-69
2021/08/09 04:25:40;;;;;;;6.22;2.25;;;14.00;99.90;;;;;;5067797;28;20047;-69
2021/08/09 04:28:06;;;;;;;10.10;2.03;;;14.00;99.90;;;;;;5066474;28;20028;-73
2021/08/09 04:30:32;;;;;;;7.28;2.65;;;14.00;99.90;;;;;;5066146;28;20028;-71
2021/08/09 04:33:02;;;;;;;9.30;2.75;;;14.10;99.90;;;;;;5066099;28;20064;-72
2021/08/09 04:35:28;;;;;;;4.95;2.60;;;14.00;99.90;;;;;;5067543;28;20021;-72
2021/08/09 04:37:53;;;;;;;5.22;2.45;;;14.10;99.90;;;;;;5067266;28;20029;-72
2021/08/09 04:40:19;;;;;;;10.93;2.83;;;14.10;99.90;;;;;;5067375;28;20025;-72
2021/08/09 04:42:44;;;;;;;14.57;2.17;;;14.10;99.90;;;;;;5066103;28;20029;-71
2021/08/09 04:45:10;;;;;;;6.75;2.50;;;14.10;99.90;;;;;;5067410;28;20064;-71
2021/08/09 04:47:36;;;;;;;3.58;2.15;;;14.20;99.90;;;;;;5066494;28;20079;-70
2021/08/09 04:50:01;;;;;;;10.07;2.47;;;14.20;99.90;;;;;;5067036;28;20058;-74
2021/08/09 04:52:27;;;;;;;3.88;1.67;;;14.20;99.90;;;;;;5065560;28;20076;-71
2021/08/09 04:54:53;;;;;;;6.43;2.38;;;14.30;99.90;;;;;;5065880;28;20040;-71
2021/08/09 04:57:18;;;;;;;8.68;2.50;;;14.40;99.90;;;;;;5067237;28;20088;-72
2021/08/09 04:59:44;;;;;;;5.50;1.67;;;14.40;99.90;;;;;;5067261;28;20033;-71
2021/08/09 05:02:09;;;;;;;4.55;2.38;;;14.40;99.90;;;;;;5066967;28;20033;-74
2021/08/09 05:04:35;;;;;;;14.50;2.53;;;14.30;99.90;;;;;;5066833;28;20051;-72
2021/08/09 05:07:04;;;;;;;6.47;1.90;;;14.50;99.90;;;;;;5066783;28;20025;-72
2021/08/09 05:09:31;;;;;;;8.30;1.90;;;14.50;99.90;;;;;;5066741;28;20113;-69
2021/08/09 05:11:57;;;;;;;3.50;1.50;;;14.70;99.90;;;;;;5061246;28;20123;-72
2021/08/09 05:14:23;;;;;;;4.80;2.03;;;14.60;99.90;;;;;;5052563;28;20026;-70
2021/08/09 05:16:48;;;;;;;7.78;1.92;;;14.70;99.90;;;;;;5053083;28;20256;-69
2021/08/09 05:19:15;;;;;;;4.03;1.98;;;14.70;99.90;;;;;;5066708;28;20085;-74
2021/08/09 05:21:41;;;;;;;20.05;2.45;;;14.70;99.90;;;;;;5065512;28;20037;-69
2021/08/09 05:24:08;;;;;;;14.40;2.50;;;14.80;99.90;;;;;;5065268;28;20026;-69
2021/08/09 05:26:33;;;;;;;2.58;1.73;;;14.80;99.90;;;;;;5065050;28;20051;-70
2021/08/09 05:28:59;;;;;;;4.07;2.55;;;14.80;99.90;;;;;;5066542;28;20469;-70
2021/08/09 05:31:28;;;;;;;5.97;2.35;;;14.90;99.90;;;;;;5066336;28;20021;-72
2021/08/09 05:33:57;;;;;;;13.27;2.90;;;15.00;99.90;;;;;;5062431;28;20094;-70
2021/08/09 05:36:24;;;;;;;9.02;2.70;;;15.00;99.90;;;;;;5054984;28;20033;-71
2021/08/09 05:38:49;;;;;;;8.48;3.13;;;15.00;99.90;;;;;;5059486;28;20035;-71
2021/08/09 05:41:15;;;;;;;6.15;2.53;;;15.00;99.90;;;;;;5059130;28;20033;-74
2021/08/09 05:43:43;;;;;;;7.35;2.25;;;15.00;99.90;;;;;;5051231;28;20036;-72
2021/08/09 05:46:09;;;;;;;5.95;2.55;;;15.00;99.90;;;;;;5061557;28;20026;-72
2021/08/09 05:48:35;;;;;;;12.32;2.20;;;15.00;99.90;;;;;;5045586;28;20045;-71
2021/08/09 05:51:07;;;;;;;7.93;2.10;;;15.00;99.90;;;;;;5045918;28;20022;-73
2021/08/09 05:53:32;;;;;;;7.18;1.95;;;15.10;99.90;;;;;;5045628;28;20064;-72
2021/08/09 05:56:01;;;;;;;6.75;2.03;;;15.00;99.90;;;;;;5046244;28;20030;-75
2021/08/09 05:58:27;;;;;;;8.00;2.47;;;15.10;99.90;;;;;;5046005;28;20114;-71
2021/08/09 06:00:52;;;;;;;7.45;3.20;;;15.10;99.90;;;;;;5045933;28;20090;-75
2021/08/09 06:03:22;;;;;;;7.80;2.63;;;15.10;99.90;;;;;;5044635;28;20021;-75
2021/08/09 06:05:47;;;;;;;2.53;1.70;;;15.10;99.90;;;;;;5044623;28;20037;-75
2021/08/09 06:08:13;;;;;;;9.23;2.45;;;15.10;99.90;;;;;;5044252;28;20033;-72
2021/08/09 06:10:39;;;;;;;4.95;2.40;;;15.10;99.90;;;;;;5045721;28;20029;-71
2021/08/09 06:13:04;;;;;;;9.05;2.55;;;15.10;99.90;;;;;;5045308;28;20064;-70
2021/08/09 06:15:30;;;;;;;6.40;2.20;;;15.20;99.90;;;;;;5044201;28;20041;-70
2021/08/09 06:17:57;;;;;;;6.10;2.47;;;15.20;99.90;;;;;;5045127;28;20050;-72
2021/08/09 06:20:22;;;;;;;7.82;2.80;;;15.30;99.90;;;;;;5045501;28;20021;-74
2021/08/09 06:22:48;;;;;;;9.73;2.00;;;15.30;99.90;;;;;;5045441;28;20093;-73
2021/08/09 06:25:13;;;;;;;10.30;3.05;;;15.20;99.90;;;;;;5060732;28;20025;-74
2021/08/09 06:27:41;;;;;;;8.48;2.55;;;15.30;99.90;;;;;;5045378;28;20029;-71
2021/08/09 06:30:07;;;;;;;3.97;2.38;;;15.30;99.90;;;;;;5045287;28;20048;-69
2021/08/09 06:32:33;;;;;;;15.55;2.10;;;15.30;99.90;;;;;;5043913;28;20046;-70
2021/08/09 06:34:58;;;;;;;5.05;2.25;;;15.40;99.90;;;;;;5045113;28;20037;-69
2021/08/09 06:37:24;;;;;;;8.95;2.70;;;15.40;99.90;;;;;;5045083;28;20025;-74
2021/08/09 06:39:50;;;;;;;9.98;2.88;;;15.40;99.90;;;;;;5044702;28;20052;-67
2021/08/09 06:42:16;;;;;;;6.22;2.10;;;15.50;99.90;;;;;;5045210;28;20081;-72
2021/08/09 06:44:43;;;;;;;10.02;2.45;;;15.50;99.90;;;;;;5043884;28;20022;-72
2021/08/09 06:47:09;;;;;;;5.53;2.38;;;15.60;99.90;;;;;;5043610;28;20030;-72
2021/08/09 06:49:35;;;;;;;4.28;2.22;;;15.60;99.90;;;;;;5044880;28;20029;-71
2021/08/09 06:52:01;;;;;;;4.22;1.63;;;15.60;99.90;;;;;;5044630;28;20041;-71
2021/08/09 06:54:26;;;;;;;4.90;2.10;;;15.60;99.90;;;;;;5045040;28;20021;-74
2021/08/09 06:56:52;;;;;;;7.25;2.17;;;15.70;99.90;;;;;;5043545;28;20076;-74
2021/08/09 06:59:18;;;;;;;11.40;2.50;;;15.70;99.90;;;;;;5044927;28;20052;-76
2021/08/09 07:01:45;;;;;;;4.70;2.35;;;15.70;99.90;;;;;;5043658;28;20021;-71
2021/08/09 07:04:11;;;;;;;5.93;2.58;;;15.70;99.90;;;;;;5044936;28;20036;-71
2021/08/09 07:06:37;;;;;;;6.53;2.45;;;15.70;99.90;;;;;;5044645;28;20092;-71
2021/08/09 07:09:03;;;;;;;6.45;2.03;;;15.70;99.90;;;;;;5043424;28;20045;-74
2021/08/09 07:11:30;;;;;;;10.52;2.45;;;15.80;99.90;;;;;;5044268;28;20030;-71
2021/08/09 07:13:55;;;;;;;11.35;2.42;;;15.80;99.90;;;;;;5044623;28;20088;-72
2021/08/09 07:16:24;;;;;;;6.50;2.33;;;15.80;99.90;;;;;;5046917;28;20049;-70
2021/08/09 07:18:51;;;;;;;5.60;2.40;;;15.90;99.90;;;;;;5044674;28;20021;-75
2021/08/09 07:21:17;;;;;;;8.38;2.65;;;15.90;99.90;;;;;;5063754;28;20065;-70
2021/08/09 07:23:43;;;;;;;10.95;2.67;;;16.00;99.90;;;;;;5061508;28;20030;-71
2021/08/09 07:26:09;;;;;;;4.05;2.20;;;16.10;99.90;;;;;;5051428;28;20093;-71
2021/08/09 07:28:35;;;;;;;9.68;3.10;;;16.20;99.90;;;;;;5060180;28;20025;-74
2021/08/09 07:31:01;;;;;;;3.30;1.65;;;16.30;99.90;;;;;;5059888;28;20029;-73
2021/08/09 07:33:26;;;;;;;8.70;2.60;;;16.40;99.90;;;;;;5042544;28;20071;-73
2021/08/09 07:35:53;;;;;;;16.20;2.50;;;16.50;99.90;;;;;;5044518;28;20032;-71
2021/08/09 07:38:19;;;;;;;6.80;2.75;;;16.50;99.90;;;;;;5060319;28;20055;-70
2021/08/09 07:40:45;;;;;;;16.20;2.63;;;16.60;99.90;;;;;;5064155;28;20021;-68
2021/08/09 07:43:10;;;;;;;7.63;2.65;;;16.60;99.90;;;;;;5064360;28;20116;-71
2021/08/09 07:45:38;;;;;;;9.10;3.22;;;16.70;99.90;;;;;;5061321;28;20017;-69
2021/08/09 07:48:04;;;;;;;9.15;2.63;;;16.70;99.90;;;;;;5061932;28;20044;-70
2021/08/09 07:50:30;;;;;;;5.03;2.22;;;16.70;99.90;;;;;;5062271;28;20045;-73
2021/08/09 07:52:56;;;;;;;9.05;2.97;;;16.80;99.90;;;;;;5062108;28;20033;-72
2021/08/09 07:55:22;;;;;;;10.85;2.92;;;16.70;99.90;;;;;;5060951;28;20027;-71
2021/08/09 07:57:48;;;;;;;9.40;2.88;;;16.80;99.90;;;;;;5061396;28;20032;-72
2021/08/09 08:00:17;;;;;;;6.88;2.47;;;16.80;99.90;;;;;;5061547;28;20083;-71
2021/08/09 08:02:44;;;;;;;7.57;2.55;;;16.80;99.90;;;;;;5063808;28;20378;-70
2021/08/09 08:05:10;;;;;;;12.23;2.40;;;16.90;99.90;;;;;;5063756;28;20549;-70
2021/08/09 08:07:36;;;;;;;17.02;2.97;;;16.90;99.90;;;;;;5062456;28;20044;-71
2021/08/09 08:10:02;;;;;;;8.32;2.35;;;16.90;99.90;;;;;;5063817;28;20029;-72
2021/08/09 08:12:29;;;;;;;6.45;2.78;;;17.00;99.90;;;;;;5062178;28;20037;-71
2021/08/09 08:14:55;;;;;;;7.13;2.88;;;17.00;99.90;;;;;;5063845;28;20025;-72
2021/08/09 08:17:23;;;;;;;13.82;2.78;;;17.10;99.90;;;;;;5063118;28;20051;-73
2021/08/09 08:19:49;;;;;;;5.53;2.70;;;17.20;99.90;;;;;;5062063;28;20025;-72
2021/08/09 08:22:15;;;;;;;13.85;2.83;;;17.20;99.90;;;;;;5063485;28;20025;-73
2021/08/09 08:24:40;;;;;;;23.95;2.83;;;17.30;99.90;;;;;;5067619;28;20186;-70
2021/08/09 08:27:06;;;;;;;6.97;2.47;;;17.40;99.90;;;;;;5067200;28;20049;-71
2021/08/09 08:29:31;;;;;;;4.80;2.08;;;17.50;99.90;;;;;;5066112;28;20055;-74
2021/08/09 08:31:57;;;;;;;3.53;1.95;;;17.60;99.90;;;;;;5067612;28;20045;-70
2021/08/09 08:34:23;;;;;;;3.67;1.92;;;17.70;99.90;;;;;;5067744;28;20029;-68
2021/08/09 08:36:48;;;;;;;3.83;1.45;;;17.70;99.90;;;;;;5066569;28;20045;-70
2021/08/09 08:39:14;;;;;;;4.03;1.48;;;17.90;99.90;;;;;;5067643;28;20081;-71
2021/08/09 08:41:44;;;;;;;5.45;2.35;;;18.00;99.90;;;;;;5066148;28;20044;-70
2021/08/09 08:44:10;;;;;;;4.30;1.70;;;18.10;99.90;;;;;;5066821;28;20126;-69
2021/08/09 08:46:42;;;;;;;7.50;2.53;;;18.10;99.90;;;;;;5065761;28;20033;-70
2021/08/09 08:49:13;;;;;;;14.05;2.45;;;18.10;99.90;;;;;;5066101;28;20033;-70
2021/08/09 08:51:46;;;;;;;5.07;1.85;;;18.10;99.90;;;;;;5065588;28;20021;-72
2021/08/09 08:54:12;;;;;;;2.63;1.42;;;18.20;99.90;;;;;;5067345;28;20021;-68
2021/08/09 08:56:39;;;;;;;9.93;1.58;;;18.20;99.90;;;;;;5062865;28;20025;-69
2021/08/09 08:59:07;;;;;;;9.95;1.58;;;18.30;99.90;;;;;;5054828;28;20040;-70
2021/08/09 09:01:45;;;;;;;2.25;1.27;;;18.20;99.90;;;;;;5046930;28;20030;-70
2021/08/09 09:04:27;;;;;;;6.47;1.42;;;18.20;99.90;;;;;;5066724;28;20049;-71
2021/08/09 09:07:04;;;;;;;11.40;2.13;;;18.20;99.90;;;;;;5066828;28;20036;-72
2021/08/09 09:09:35;;;;;;;2.28;1.20;;;18.20;99.90;;;;;;5046981;28;20104;-72
2021/08/09 09:12:14;;;;;;;6.18;1.60;;;18.30;99.90;;;;;;5046854;28;20128;-71
2021/08/09 09:14:40;;;;;;;11.02;1.33;;;18.50;99.90;;;;;;5060248;28;20090;-71
2021/08/09 09:17:06;;;;;;;3.60;1.40;;;18.60;99.90;;;;;;5064160;28;20456;-73
2021/08/09 09:19:36;;;;;;;3.63;1.20;;;18.80;99.90;;;;;;5065395;28;20139;-71
2021/08/09 09:22:19;;;;;;;4.90;1.63;;;18.90;99.90;;;;;;5065226;28;20025;-69
2021/08/09 09:24:52;;;;;;;8.88;1.42;;;19.00;99.90;;;;;;5067136;28;20029;-71
2021/08/09 09:27:32;;;;;;;3.30;1.30;;;19.00;99.90;;;;;;5066796;28;20025;-69
2021/08/09 09:30:00;;;;;;;4.60;1.48;;;19.00;99.90;;;;;;5066406;28;20039;-71
2021/08/09 09:32:26;;;;;;;6.47;1.33;;;18.90;99.90;;;;;;5066496;28;20037;-68
2021/08/09 09:34:54;;;;;;;7.75;1.95;;;18.90;99.90;;;;;;5066295;28;20032;-68
2021/08/09 09:37:26;;;;;;;2.17;1.23;;;19.00;99.90;;;;;;5066522;28;20033;-70
2021/08/09 09:39:53;;;;;;;7.00;1.63;;;18.90;99.90;;;;;;5066325;28;20163;-71
2021/08/09 09:42:19;;;;;;;5.88;1.48;;;19.00;99.90;;;;;;5065241;28;20021;-73
2021/08/09 09:44:45;;;;;;;4.38;0.95;;;19.10;99.90;;;;;;5066482;28;20029;-72
2021/08/09 09:47:21;;;;;;;2.92;1.23;;;19.10;99.90;;;;;;5066352;28;20032;-71
2021/08/09 09:49:52;;;;;;;5.80;1.60;;;19.10;99.90;;;;;;5066448;28;20033;-68
2021/08/09 09:52:31;;;;;;;6.18;1.33;;;19.20;99.90;;;;;;5064367;28;20044;-69
2021/08/09 09:54:59;;;;;;;1.55;1.08;;;19.20;99.90;;;;;;5065082;28;20036;-69
2021/08/09 09:57:26;;;;;;;4.93;2.38;;;19.30;99.90;;;;;;5066079;28;20649;-70
2021/08/09 09:59:59;;;;;;;9.80;1.88;;;19.30;99.90;;;;;;5066123;28;20461;-72
2021/08/09 10:02:28;;;;;;;2.97;1.13;;;19.40;99.90;;;;;;5065900;28;20104;-72
2021/08/09 10:04:54;;;;;;;4.68;1.23;;;19.40;99.90;;;;;;5065862;28;20033;-70
2021/08/09 10:07:23;;;;;;;6.22;1.25;;;19.50;99.90;;;;;;5065827;28;20039;-72
2021/08/09 10:09:49;;;;;;;2.00;1.13;;;19.60;99.90;;;;;;5066093;28;20430;-72
2021/08/09 10:12:21;;;;;;;4.97;1.38;;;19.60;99.90;;;;;;5065905;28;20037;-69
2021/08/09 10:14:47;;;;;;;3.97;1.50;;;19.70;99.90;;;;;;5066084;28;20036;-73
2021/08/09 10:17:16;;;;;;;2.13;1.40;;;19.80;99.90;;;;;;5065575;28;20053;-68
2021/08/09 10:19:44;;;;;;;8.10;1.63;;;19.80;99.90;;;;;;5064349;28;20888;-73
2021/08/09 10:22:10;;;;;;;10.95;1.88;;;19.80;99.90;;;;;;5065419;28;20477;-69
2021/08/09 10:24:40;;;;;;;14.63;1.48;;;19.90;99.90;;;;;;5064103;28;20139;-73
2021/08/09 10:27:06;;;;;;;7.25;2.38;;;19.90;99.90;;;;;;5065552;28;20029;-71
2021/08/09 10:29:32;;;;;;;1.83;1.15;;;20.10;99.90;;;;;;5065463;28;20033;-70
2021/08/09 10:32:18;;;;;;;5.32;1.00;;;20.10;99.90;;;;;;5065358;28;20037;-72
2021/08/09 10:34:44;;;;;;;5.07;1.30;;;20.10;99.90;;;;;;5065551;28;20100;-75
2021/08/09 10:37:13;;;;;;;5.32;1.35;;;20.10;99.90;;;;;;5065236;28;20033;-71
2021/08/09 10:40:01;;;;;;;7.85;1.00;;;20.00;99.90;;;;;;5065508;28;20092;-72
2021/08/09 10:42:39;;;;;;;2.90;0.95;;;20.00;99.90;;;;;;5065323;28;20037;-74
2021/08/09 10:45:14;;;;;;;1.13;0.75;;;20.00;99.90;;;;;;5064983;28;20037;-72
2021/08/09 10:47:46;;;;;;;4.00;1.17;;;20.00;99.90;;;;;;5065598;28;20037;-71
2021/08/09 10:50:41;;;;;;;4.90;0.77;;;20.00;99.90;;;;;;5065483;28;20029;-67
2021/08/09 10:53:25;;;;;;;3.22;1.10;;;20.10;99.90;;;;;;5035967;28;20076;-70
2021/08/09 10:55:52;;;;;;;5.15;0.70;;;20.20;99.90;;;;;;5064738;28;20029;-74
2021/08/09 10:58:42;;;;;;;8.80;1.15;;;20.20;99.90;;;;;;5065006;28;20032;-68
2021/08/09 11:01:09;;;;;;;8.88;1.27;;;20.40;99.90;;;;;;5065170;28;20029;-71
2021/08/09 11:03:55;;;;;;;2.20;1.00;;;20.50;99.90;;;;;;5064881;28;20017;-71
2021/08/09 11:06:49;;;;;;;4.10;1.33;;;20.50;99.90;;;;;;5064748;28;20029;-71
2021/08/09 11:09:31;;;;;;;;;;;20.50;99.90;;;;;;5065325;28;20025;-72
2021/08/09 11:12:20;;;;;;;1.17;0.85;;;20.50;99.90;;;;;;5064887;28;19908;-68
2021/08/09 11:15:02;;;;;;;3.15;1.35;;;20.50;99.90;;;;;;5064766;28;20105;-69
2021/08/09 11:17:43;;;;;;;3.65;1.08;;;20.60;99.90;;;;;;5064336;28;20059;-71
2021/08/09 11:20:10;;;;;;;4.25;0.65;;;20.50;99.90;;;;;;5064879;28;20093;-73
2021/08/09 11:22:36;;;;;;;1.80;0.68;;;20.60;99.90;;;;;;5064337;28;20021;-72
2021/08/09 11:25:02;;;;;;;5.30;1.33;;;20.70;99.90;;;;;;5063504;28;20056;-71
2021/08/09 11:27:28;;;;;;;4.00;1.40;;;20.70;99.90;;;;;;5063319;28;20060;-73
2021/08/09 11:29:58;;;;;;;12.48;1.40;;;20.50;99.90;;;;;;5064670;28;20040;-73
2021/08/09 11:32:42;;;;;;;4.72;1.10;;;20.40;99.90;;;;;;5063196;28;20041;-70
2021/08/09 11:35:09;;;;;;;1.52;1.15;;;20.40;99.90;;;;;;5064090;28;20760;-68
2021/08/09 11:37:58;;;;;;;5.85;1.48;;;20.40;99.90;;;;;;5064112;28;20573;-70
2021/08/09 11:40:38;;;;;;;5.72;1.45;;;20.50;99.90;;;;;;5064458;28;20075;-70
2021/08/09 11:43:04;;;;;;;2.00;1.02;;;20.90;99.90;;;;;;5064492;28;20025;-70
2021/08/09 11:45:30;;;;;;;1.35;0.82;;;21.30;99.90;;;;;;5064286;28;20040;-70
2021/08/09 11:47:56;;;;;;;5.43;1.10;;;21.30;99.90;;;;;;5064488;28;20449;-68
2021/08/09 11:50:23;;;;;;;4.57;0.85;;;21.30;99.90;;;;;;5064342;28;20025;-68
2021/08/09 11:52:49;;;;;;;5.15;1.13;;;21.20;99.90;;;;;;5063065;28;20048;-73
2021/08/09 11:55:22;;;;;;;3.80;1.08;;;21.10;99.90;;;;;;5064644;28;20029;-70
2021/08/09 11:57:48;;;;;;;5.32;1.10;;;21.00;99.90;;;;;;5066577;28;20032;-73
2021/08/09 12:00:15;;;;;;;1.13;0.80;;;20.90;99.90;;;;;;5068301;28;20135;-71
2021/08/09 12:03:07;;;;;;;6.47;1.13;;;21.00;99.90;;;;;;5068362;28;20020;-71
2021/08/09 12:05:32;;;;;;;1.75;1.10;;;20.90;99.90;;;;;;5068301;28;20055;-73
2021/08/09 12:07:58;;;;;;;3.95;0.98;;;21.00;99.90;;;;;;5068088;28;20033;-71
2021/08/09 12:10:27;;;;;;;1.95;1.10;;;21.20;99.90;;;;;;5068168;28;20021;-69
2021/08/09 12:12:52;;;;;;;2.53;1.15;;;21.20;99.90;;;;;;5066629;28;20033;-69
2021/08/09 12:15:19;;;;;;;3.35;1.23;;;21.40;99.90;;;;;;5068118;28;20031;-72
2021/08/09 12:18:02;;;;;;;2.13;1.15;;;21.50;99.90;;;;;;5068012;28;20129;-72
2021/08/09 12:20:27;;;;;;;2.35;1.42;;;21.60;99.90;;;;;;5068066;28;20063;-70
2021/08/09 12:22:53;;;;;;;3.60;0.95;;;21.60;99.90;;;;;;5067612;28;20033;-69
2021/08/09 12:25:22;;;;;;;4.50;0.90;;;21.70;99.90;;;;;;5067894;28;20029;-71
2021/08/09 12:28:02;;;;;;;20.35;1.15;;;21.80;99.90;;;;;;5067974;28;20020;-73
2021/08/09 12:30:28;;;;;;;5.00;1.23;;;21.80;99.90;;;;;;5067854;28;20108;-71
2021/08/09 12:32:59;;;;;;;4.97;1.17;;;21.80;99.90;;;;;;5067445;28;20063;-68
2021/08/09 12:35:32;;;;;;;4.78;1.13;;;21.90;99.90;;;;;;5067571;28;20081;-71
2021/08/09 12:37:58;;;;;;;2.88;1.30;;;22.10;99.90;;;;;;5067455;28;20028;-74
2021/08/09 12:40:23;;;;;;;3.40;1.02;;;22.30;99.90;;;;;;5083008;28;20082;-71
2021/08/09 12:43:03;;;;;;;3.70;1.20;;;22.40;99.90;;;;;;5067449;28;20062;-68
2021/08/09 12:45:32;;;;;;;3.40;1.10;;;22.50;99.90;;;;;;5067462;28;20025;-73
2021/08/09 12:47:58;;;;;;;8.25;1.55;;;22.50;99.90;;;;;;5067501;28;20113;-71
2021/08/09 12:50:24;;;;;;;6.90;1.20;;;22.30;99.90;;;;;;5066094;28;20059;-74
2021/08/09 12:52:49;;;;;;;2.25;1.17;;;22.00;99.90;;;;;;5065775;28;20068;-71